Weather History for Galesburg, IL

Change the Weather History Date:

Friday, February 15, 2013

  Actual Average Record
Temperature  
Mean Temperature 26 °F -  
Max Temperature 32 °F 34 °F 71 °F (1954)
Min Temperature 18 °F 18 °F -9 °F (2014)
Degree Days  
Heating Degree Days 40    
Moisture  
Dew Point 15 °F    
Average Humidity 67    
Maximum Humidity 90    
Minimum Humidity 43    
Precipitation  
Precipitation 0.00 in - - ()
Sea Level Pressure  
Sea Level Pressure 30.19 in    
Wind  
Wind Speed 12 mph (WNW)    
Max Wind Speed 20 mph    
Max Gust Speed 25 mph    
Visibility 10 miles    
Events      
Averages and records for this station are not official NWS values.
T = Trace of Precipitation, MM = Missing Value Source: NWS Daily Summary

Daily Weather History Graph

Daily Weather History Graph

Search for Another Location

Airport:

Trip Planner

Search our weather history database for the weather conditions in past years. The results will help you decide how hot, cold, wet, or windy it might be!

Date:

Astronomy

Feb. 15, 2013 Rise Set
Actual Time 6:55 AM CST 5:36 PM CST
Civil Twilight 6:27 AM CST 6:04 PM CST
Nautical Twilight 5:55 AM CST 6:36 PM CST
Astronomical Twilight 5:23 AM CST 7:08 PM CST
Moon 9:28 AM CST (2/15) 11:40 PM CST (2/15)
Length of Visible Light 11h 37m
Length of Day
10h 41m
Waxing Crescent, 30% of the Moon is Illuminated
Feb 15
Waxing Crescent
Feb 17
First Quarter
Feb 25
Full
Mar 4
Last Quarter
Mar 11
New

Hourly Weather History & Observations

Time (CST) Temp. Windchill Dew Point Humidity Pressure Visibility Wind Dir Wind Speed Gust Speed Precip Events Conditions
12:15 AM 30.6 °F 21.8 °F 26.4 °F 85% 30.05 in 10.0 mi WNW 10.4 mph 19.6 mph N/A   Scattered Clouds
12:35 AM 29.8 °F 20.9 °F 26.4 °F 87% 30.05 in 10.0 mi NW 10.4 mph 16.1 mph N/A   Clear
12:55 AM 29.3 °F 20.2 °F 26.6 °F 90% 30.06 in 10.0 mi WNW 10.4 mph - N/A   Scattered Clouds
1:15 AM 29.7 °F 19.6 °F 26.8 °F 89% 30.06 in 10.0 mi WNW 12.7 mph - N/A   Mostly Cloudy
1:35 AM 29.8 °F 20.3 °F 26.6 °F 88% 30.07 in 10.0 mi WNW 11.5 mph - N/A   Overcast
1:55 AM 30.0 °F 19.5 °F 25.2 °F 82% 30.08 in 10.0 mi WNW 13.8 mph 19.6 mph N/A   Overcast
2:15 AM 29.3 °F 17.7 °F 23.7 °F 80% 30.09 in 10.0 mi NW 16.1 mph - N/A   Overcast
2:35 AM 27.9 °F 15.5 °F 20.5 °F 74% 30.10 in 10.0 mi WNW 17.3 mph 23.0 mph N/A   Overcast
2:55 AM 26.6 °F 14.7 °F 18.3 °F 71% 30.11 in 10.0 mi WNW 15.0 mph 21.9 mph N/A   Overcast
3:15 AM 25.7 °F 13.5 °F 16.3 °F 68% 30.11 in 10.0 mi WNW 15.0 mph 21.9 mph N/A   Overcast
3:35 AM 25.0 °F 13.6 °F 16.2 °F 69% 30.12 in 10.0 mi WNW 12.7 mph 17.3 mph N/A   Overcast
3:55 AM 24.8 °F 12.4 °F 16.3 °F 70% 30.12 in 10.0 mi NW 15.0 mph 20.7 mph N/A   Overcast
4:15 AM 24.1 °F 12.0 °F 14.9 °F 68% 30.13 in 10.0 mi NW 13.8 mph 21.9 mph N/A   Overcast
4:35 AM 23.2 °F 10.8 °F 15.3 °F 72% 30.14 in 10.0 mi NW 13.8 mph - N/A   Scattered Clouds
4:55 AM 22.3 °F 10.2 °F 14.9 °F 73% 30.15 in 10.0 mi NW 12.7 mph 19.6 mph N/A   Clear
5:15 AM 21.9 °F 10.4 °F 14.5 °F 73% 30.16 in 10.0 mi NW 11.5 mph - N/A   Clear
5:35 AM 21.7 °F 9.0 °F 14.2 °F 73% 30.16 in 10.0 mi WNW 13.8 mph - N/A   Clear
5:55 AM 21.2 °F 8.3 °F 14.4 °F 75% 30.16 in 10.0 mi NW 13.8 mph - N/A   Clear
6:15 AM 21.2 °F 8.9 °F 14.4 °F 75% 30.17 in 10.0 mi NW 12.7 mph 18.4 mph N/A   Clear
6:35 AM 21.2 °F 9.5 °F 13.6 °F 73% 30.18 in 10.0 mi NW 11.5 mph 17.3 mph N/A   Clear
6:55 AM 20.7 °F 8.8 °F 13.3 °F 73% 30.19 in 10.0 mi NW 11.5 mph - N/A   Clear
7:15 AM 20.7 °F 9.5 °F 13.1 °F 73% 30.20 in 10.0 mi NW 10.4 mph - N/A   Clear
7:35 AM 20.7 °F 8.8 °F 13.6 °F 74% 30.21 in 10.0 mi NW 11.5 mph - N/A   Clear
7:55 AM 21.2 °F 8.9 °F 13.3 °F 72% 30.22 in 10.0 mi NW 12.7 mph - N/A   Clear
8:15 AM 22.1 °F 10.0 °F 12.7 °F 67% 30.23 in 10.0 mi NW 12.7 mph 19.6 mph N/A   Clear
8:35 AM 23.0 °F 11.1 °F 12.4 °F 64% 30.23 in 10.0 mi NW 12.7 mph 19.6 mph N/A   Clear
8:55 AM 23.7 °F 12.6 °F 12.9 °F 63% 30.24 in 10.0 mi NW 11.5 mph - N/A   Clear
9:15 AM 24.6 °F 13.8 °F 12.9 °F 61% 30.24 in 10.0 mi NW 11.5 mph - N/A   Clear
9:35 AM 25.3 °F 14.7 °F 13.1 °F 60% 30.24 in 10.0 mi WNW 11.5 mph - N/A   Clear
9:55 AM 26.6 °F 17.5 °F 13.5 °F 58% 30.24 in 10.0 mi NW 9.2 mph - N/A   Clear
10:15 AM 27.0 °F 16.7 °F 13.1 °F 56% 30.24 in 10.0 mi WNW 11.5 mph - N/A   Clear
10:35 AM 27.9 °F 18.4 °F 12.2 °F 52% 30.24 in 10.0 mi NW 10.4 mph - N/A   Clear
10:55 AM 28.4 °F 19.7 °F 13.1 °F 53% 30.24 in 10.0 mi WNW 9.2 mph - N/A   Clear
11:15 AM 29.5 °F 19.9 °F 13.6 °F 52% 30.24 in 10.0 mi NW 11.5 mph 17.3 mph N/A   Clear
11:55 AM 30.4 °F 20.0 °F 13.3 °F 49% 30.23 in 10.0 mi NW 13.8 mph - N/A   Clear
12:15 PM 30.9 °F 22.2 °F 14.5 °F 51% 30.23 in 10.0 mi West 10.4 mph 17.3 mph N/A   Clear
12:35 PM 31.6 °F 22.6 °F 14.0 °F 48% 30.22 in 10.0 mi WNW 11.5 mph 18.4 mph N/A   Clear
12:55 PM 32.0 °F 22.1 °F 15.3 °F 50% 30.22 in 10.0 mi WNW 13.8 mph 18.4 mph N/A   Clear
1:15 PM 31.8 °F 21.4 °F 14.5 °F 49% 30.21 in 10.0 mi West 15.0 mph 20.7 mph N/A   Clear
1:35 PM 32.0 °F 21.2 °F 13.8 °F 47% 30.21 in 10.0 mi WNW 16.1 mph 23.0 mph N/A   Clear
1:55 PM 32.0 °F 23.0 °F 14.0 °F 48% 30.20 in 10.0 mi WNW 11.5 mph - N/A   Clear
2:15 PM 32.0 °F 22.5 °F 14.5 °F 49% 30.20 in 10.0 mi WNW 12.7 mph 20.7 mph N/A   Scattered Clouds
2:35 PM 31.6 °F 20.4 °F 13.3 °F 47% 30.20 in 10.0 mi West 17.3 mph - N/A   Mostly Cloudy
2:55 PM 32.0 °F 22.1 °F 14.0 °F 48% 30.20 in 10.0 mi West 13.8 mph 24.2 mph N/A   Scattered Clouds
3:15 PM 32.0 °F 21.2 °F 12.6 °F 45% 30.20 in 10.0 mi WNW 16.1 mph 20.7 mph N/A   Scattered Clouds
3:35 PM 31.3 °F 19.2 °F 12.2 °F 45% 30.20 in 10.0 mi WNW 19.6 mph 25.3 mph N/A   Clear
3:55 PM 30.7 °F 19.2 °F 10.8 °F 43% 30.21 in 10.0 mi WNW 17.3 mph 24.2 mph N/A   Clear
4:15 PM 30.0 °F 17.5 °F 10.0 °F 43% 30.22 in 10.0 mi West 19.6 mph 25.3 mph N/A   Clear
4:35 PM 29.3 °F 16.6 °F 11.8 °F 48% 30.22 in 10.0 mi WNW 19.6 mph 23.0 mph N/A   Clear
4:55 PM 28.2 °F 16.3 °F 12.7 °F 52% 30.22 in 10.0 mi WNW 16.1 mph 23.0 mph N/A   Clear
5:15 PM 27.1 °F 15.9 °F 13.8 °F 57% 30.23 in 10.0 mi WNW 13.8 mph 20.7 mph N/A   Scattered Clouds
5:35 PM 25.9 °F 14.3 °F 14.7 °F 63% 30.23 in 10.0 mi NW 13.8 mph 19.6 mph N/A   Scattered Clouds
5:55 PM 25.3 °F 14.1 °F 15.6 °F 67% 30.23 in 10.0 mi NW 12.7 mph 18.4 mph N/A   Scattered Clouds
6:15 PM 24.6 °F 12.7 °F 14.7 °F 66% 30.23 in 10.0 mi NW 13.8 mph 18.4 mph N/A   Scattered Clouds
6:35 PM 23.7 °F 14.0 °F 14.9 °F 69% 30.24 in 10.0 mi NW 9.2 mph 16.1 mph N/A   Scattered Clouds
6:55 PM 23.4 °F 12.8 °F 14.9 °F 70% 30.24 in 10.0 mi WNW 10.4 mph - N/A   Clear
7:15 PM 23.0 °F 13.9 °F 14.5 °F 70% 30.24 in 10.0 mi WNW 8.1 mph - N/A   Clear
7:35 PM 22.1 °F 13.7 °F 15.3 °F 75% 30.24 in 10.0 mi West 6.9 mph - N/A   Clear
7:55 PM 21.2 °F 13.6 °F 14.9 °F 77% 30.24 in 10.0 mi West 5.8 mph - N/A   Clear
8:15 PM 20.8 °F 12.1 °F 15.8 °F 81% 30.24 in 10.0 mi West 6.9 mph - N/A   Clear
8:35 PM 21.2 °F 11.7 °F 15.8 °F 80% 30.24 in 10.0 mi West 8.1 mph - N/A   Clear
8:55 PM 21.4 °F 11.1 °F 15.4 °F 78% 30.24 in 10.0 mi WNW 9.2 mph - N/A   Clear
9:15 PM 21.2 °F 11.7 °F 15.3 °F 78% 30.24 in 10.0 mi WNW 8.1 mph - N/A   Scattered Clouds
9:35 PM 21.2 °F 11.7 °F 14.9 °F 77% 30.24 in 10.0 mi WNW 8.1 mph - N/A   Scattered Clouds
9:55 PM 21.2 °F 10.9 °F 14.7 °F 76% 30.24 in 10.0 mi NW 9.2 mph - N/A   Scattered Clouds
10:15 PM 21.2 °F 12.6 °F 14.9 °F 77% 30.23 in 10.0 mi NW 6.9 mph - N/A   Mostly Cloudy
10:35 PM 20.7 °F 13.0 °F 15.4 °F 80% 30.23 in 10.0 mi NW 5.8 mph - N/A   Overcast
10:55 PM 20.1 °F 11.3 °F 14.7 °F 80% 30.23 in 10.0 mi NW 6.9 mph - N/A   Scattered Clouds
11:15 PM 20.1 °F 9.5 °F 13.5 °F 75% 30.22 in 10.0 mi NW 9.2 mph - N/A   Scattered Clouds
11:35 PM 19.4 °F 8.6 °F 13.1 °F 76% 30.22 in 10.0 mi NW 9.2 mph - N/A   Scattered Clouds
11:55 PM 18.9 °F 8.8 °F 12.9 °F 78% 30.22 in 10.0 mi NW 8.1 mph - N/A   Clear